Time;durP1;ratioP1;P1;durP2;ratioP2;P2;SDS_P1;SDS_P2;PMS_P1;PMS_P2;Temp;Humidity;BMP_temperature;BMP_pressure;BME280_temperature;BME280_humidity;BME280_pressure;Samples;Min_cycle;Max_cycle;Signal;HPM_P1;HPM_P2
2023/03/23 00:02:00;;;;;;;20.15;13.48;;;;;;;13.65;63.83;101052.72;6130637;23;20499;-84
2023/03/23 00:04:29;;;;;;;18.73;13.00;;;;;;;14.00;63.98;101112.56;6099384;23;20028;-83
2023/03/23 00:07:03;;;;;;;19.63;13.65;;;;;;;14.04;64.25;101136.16;6122426;23;20043;-83
2023/03/23 00:09:34;;;;;;;19.13;12.98;;;;;;;13.75;64.72;101096.22;6122464;23;20051;-84
2023/03/23 00:12:05;;;;;;;19.63;12.95;;;;;;;13.33;65.35;101031.75;6152936;23;20020;-84
2023/03/23 00:14:41;;;;;;;25.83;13.80;;;;;;;13.90;65.47;101142.78;6130856;23;20021;-82
2023/03/23 00:17:14;;;;;;;22.60;13.10;;;;;;;13.69;65.45;101094.13;6151565;23;20032;-83
2023/03/23 00:19:51;;;;;;;22.40;14.13;;;;;;;13.10;65.40;101008.03;6155167;23;20491;-83
2023/03/23 00:22:19;;;;;;;20.27;12.77;;;;;;;12.91;65.33;100984.06;6130434;23;20359;-85
2023/03/23 00:24:54;;;;;;;20.02;12.73;;;;;;;13.88;65.39;101139.44;6127482;23;20096;-84
2023/03/23 00:27:25;;;;;;;28.92;13.77;;;;;;;13.37;65.45;101057.97;6145711;23;20208;-83
2023/03/23 00:29:55;;;;;;;;;;;;;;;13.79;65.55;101124.28;6129029;23;20376;-83
2023/03/23 00:32:29;;;;;;;22.45;12.93;;;;;;;13.81;65.31;101125.00;6149950;23;20152;-85
2023/03/23 00:34:58;;;;;;;26.42;12.75;;;;;;;13.48;64.81;101072.97;6121016;23;20292;-85
2023/03/23 00:37:28;;;;;;;17.90;12.75;;;;;;;13.81;65.09;101127.66;6147954;23;20115;-84
2023/03/23 00:40:05;;;;;;;21.00;12.57;;;;;;;13.59;65.42;101096.84;6155600;23;20020;-84
2023/03/23 00:42:37;;;;;;;22.40;14.00;;;;;;;13.57;65.19;101090.78;6130714;23;20033;-83
2023/03/23 00:45:14;;;;;;;26.05;12.73;;;;;;;13.50;65.11;101078.19;6152238;23;20440;-84
2023/03/23 00:47:46;;;;;;;21.63;12.40;;;;;;;13.76;64.71;101116.59;6132554;23;20021;-84
2023/03/23 00:50:18;;;;;;;18.58;11.68;;;;;;;13.71;64.45;101110.81;6129901;23;20031;-83
2023/03/23 00:52:44;;;;;;;18.65;10.30;;;;;;;13.35;63.92;101057.28;6130982;23;20051;-84
2023/03/23 00:55:09;;;;;;;15.73;10.40;;;;;;;13.71;64.00;101115.31;6117014;23;20444;-84
2023/03/23 00:57:35;;;;;;;19.60;9.85;;;;;;;13.68;64.29;101119.13;6131390;23;20059;-84
2023/03/23 01:00:03;;;;;;;14.80;10.35;;;;;;;13.64;64.00;101107.91;6122436;23;20055;-83
2023/03/23 01:02:29;;;;;;;14.52;10.25;;;;;;;13.58;63.61;101102.28;6121787;23;20055;-84
2023/03/23 01:04:56;;;;;;;12.70;9.68;;;;;;;13.62;63.98;101103.69;6129708;23;20036;-83
2023/03/23 01:07:23;;;;;;;12.48;8.95;;;;;;;13.58;64.36;101103.13;6147002;23;20024;-82
2023/03/23 01:09:53;;;;;;;14.82;8.43;;;;;;;13.34;64.20;101066.25;6119778;23;20024;-84
2023/03/23 01:12:27;;;;;;;15.00;8.52;;;;;;;13.55;64.29;101097.25;6124333;23;20355;-84
2023/03/23 01:14:56;;;;;;;14.55;9.30;;;;;;;13.55;64.65;101087.44;6129642;23;20368;-84
2023/03/23 01:17:25;;;;;;;11.05;9.48;;;;;;;13.50;64.26;101073.69;6127392;23;20124;-83
2023/03/23 01:19:56;;;;;;;15.88;9.68;;;;;;;13.34;64.39;101047.59;6125636;23;20345;-84
2023/03/23 01:22:25;;;;;;;12.35;9.20;;;;;;;13.53;63.85;101075.22;6125958;23;20091;-84
2023/03/23 01:24:59;;;;;;;13.88;8.65;;;;;;;13.65;63.78;101088.22;6128226;23;20028;-82
2023/03/23 01:27:25;;;;;;;15.73;9.43;;;;;;;13.59;63.75;101063.94;6151924;23;20056;-84
2023/03/23 01:29:51;;;;;;;11.80;9.15;;;;;;;13.40;64.13;101025.69;6116351;23;20025;-83
2023/03/23 01:32:17;;;;;;;12.45;8.60;;;;;;;12.27;63.74;100839.06;6128099;23;20020;-82
2023/03/23 01:34:42;;;;;;;11.13;7.85;;;;;;;13.67;63.15;101061.41;6126435;23;20016;-83
2023/03/23 01:37:08;;;;;;;15.35;8.73;;;;;;;13.65;63.00;101052.72;6121441;23;20491;-85
2023/03/23 01:39:38;;;;;;;12.45;8.27;;;;;;;12.37;62.60;100839.91;6125016;23;20092;-83
2023/03/23 01:42:11;;;;;;;8.93;8.07;;;;;;;13.67;62.88;101042.75;6152638;23;20683;-82
2023/03/23 01:44:36;;;;;;;13.63;7.85;;;;;;;13.81;62.34;101054.75;6130258;23;20581;-82
2023/03/23 01:47:05;;;;;;;13.55;8.88;;;;;;;13.88;61.70;101050.50;6119148;23;20534;-81
2023/03/23 01:49:37;;;;;;;11.05;8.02;;;;;;;13.89;61.72;101037.03;6153540;23;20024;-83
2023/03/23 01:52:23;;;;;;;9.52;7.88;;;;;;;13.72;62.36;101005.78;6148401;23;20029;-85
2023/03/23 01:54:57;;;;;;;17.02;7.85;;;;;;;13.85;62.20;101030.28;6117129;23;20314;-84
2023/03/23 01:57:29;;;;;;;10.85;7.88;;;;;;;13.06;61.98;100894.72;6151230;23;20020;-83
2023/03/23 01:59:59;;;;;;;;;;;;;;;13.87;62.46;101041.66;6120759;23;20059;-81
2023/03/23 02:02:26;;;;;;;17.52;8.20;;;;;;;13.77;62.84;101032.88;6120256;23;20350;-83
2023/03/23 02:05:06;;;;;;;9.15;7.90;;;;;;;13.36;62.55;100970.97;6097787;23;20025;-83
2023/03/23 02:07:35;;;;;;;7.95;6.82;;;;;;;13.36;62.18;100946.13;6102910;23;20017;-81
2023/03/23 02:10:00;;;;;;;13.48;7.45;;;;;;;13.43;62.81;100971.22;6084019;23;20220;-83
2023/03/23 02:12:26;;;;;;;14.00;8.35;;;;;;;13.25;63.31;100947.09;6100244;23;20344;-82
2023/03/23 02:14:52;;;;;;;10.55;7.05;;;;;;;13.77;63.12;101038.22;6097705;23;20357;-85
2023/03/23 02:17:27;;;;;;;14.57;8.50;;;;;;;13.78;62.74;101034.53;6070473;23;20296;-82
2023/03/23 02:20:22;;;;;;;9.77;7.53;;;;;;;13.76;62.61;101036.53;6143351;23;20084;-83
2023/03/23 02:23:15;;;;;;;12.15;8.25;;;;;;;12.67;62.76;100868.19;6087694;23;20134;-84
2023/03/23 02:26:26;;;;;;;12.45;8.20;;;;;;;13.34;63.58;100988.09;6096927;23;20032;-85
2023/03/23 02:29:04;;;;;;;11.25;8.20;;;;;;;13.30;62.27;100995.56;6096459;23;20032;-83
2023/03/23 02:32:23;;;;;;;;;;;;;;;;;;;;;
2023/03/23 02:35:02;;;;;;;11.57;8.18;;;;;;;13.55;62.55;101033.25;6108398;23;20021;-82
2023/03/23 02:37:37;;;;;;;12.85;9.15;;;;;;;13.62;62.96;101039.69;6095150;23;20359;-83
2023/03/23 02:40:20;;;;;;;11.75;7.65;;;;;;;13.51;63.10;101021.16;6087545;23;20049;-82
2023/03/23 02:42:51;;;;;;;8.43;7.15;;;;;;;13.47;62.70;101015.28;6109938;23;20029;-83
2023/03/23 02:45:20;;;;;;;13.95;7.82;;;;;;;13.59;63.30;101038.16;6120670;23;20160;-82
2023/03/23 02:47:52;;;;;;;12.48;7.75;;;;;;;13.36;62.57;100992.28;6097535;23;20445;-82
2023/03/23 02:50:22;;;;;;;8.07;6.75;;;;;;;13.41;62.54;101011.38;6094365;23;20436;-82
2023/03/23 02:52:55;;;;;;;10.13;6.78;;;;;;;13.49;62.88;101015.13;6097628;23;20138;-83
2023/03/23 02:55:26;;;;;;;13.68;7.50;;;;;;;13.60;62.41;101026.47;6104639;23;20032;-80
2023/03/23 02:57:53;;;;;;;16.23;7.28;;;;;;;13.67;62.14;101018.72;6093663;23;20068;-82
2023/03/23 03:00:20;;;;;;;15.38;7.55;;;;;;;13.76;61.77;101020.53;6101949;23;20029;-82
2023/03/23 03:02:55;;;;;;;12.68;7.40;;;;;;;13.32;62.37;100953.56;6107549;23;20544;-82
2023/03/23 03:05:24;;;;;;;8.95;7.65;;;;;;;13.37;62.43;100967.28;6116185;23;20056;-84
2023/03/23 03:07:58;;;;;;;11.95;8.15;;;;;;;13.71;62.08;101017.44;6126875;23;20021;-82
2023/03/23 03:10:43;;;;;;;11.98;7.57;;;;;;;13.85;62.00;101040.97;6117821;23;20456;-81
2023/03/23 03:13:16;;;;;;;10.85;7.82;;;;;;;13.88;61.86;101035.38;6122843;23;20024;-82
2023/03/23 03:15:56;;;;;;;11.77;8.48;;;;;;;13.71;61.78;101022.78;6116235;23;20424;-85
2023/03/23 03:18:26;;;;;;;13.48;8.70;;;;;;;13.75;61.87;101029.50;6150808;23;20020;-83
2023/03/23 03:21:03;;;;;;;15.07;8.30;;;;;;;13.80;62.09;101032.56;6125395;23;20016;-83
2023/03/23 03:23:32;;;;;;;11.73;8.23;;;;;;;13.79;61.84;101036.25;6124178;23;20335;-86
2023/03/23 03:26:00;;;;;;;15.27;8.55;;;;;;;12.83;61.87;100878.22;6141276;23;20074;-85
2023/03/23 03:28:26;;;;;;;11.70;8.73;;;;;;;13.71;61.27;101004.09;6138208;23;20025;-85
2023/03/23 03:30:56;;;;;;;11.45;8.27;;;;;;;13.58;60.90;100971.59;6115588;23;20021;-84
2023/03/23 03:33:27;;;;;;;14.70;9.07;;;;;;;12.87;60.90;100858.31;6117354;23;20268;-82
2023/03/23 03:35:57;;;;;;;17.70;8.95;;;;;;;13.24;61.73;100950.75;6112930;23;20445;-82
2023/03/23 03:38:23;;;;;;;14.85;8.70;;;;;;;12.24;62.67;100818.06;6115745;23;20360;-83
2023/03/23 03:40:49;;;;;;;10.80;8.68;;;;;;;12.89;61.72;100901.63;6150109;23;20107;-83
2023/03/23 03:43:18;;;;;;;10.50;8.52;;;;;;;13.37;62.65;101004.63;6118820;23;20268;-83
2023/03/23 03:45:44;;;;;;;12.57;8.15;;;;;;;13.50;62.99;101046.19;6118078;23;20164;-83
2023/03/23 03:48:10;;;;;;;11.32;8.15;;;;;;;13.30;62.97;101008.88;6117876;23;20099;-81
2023/03/23 03:50:46;;;;;;;14.20;8.82;;;;;;;13.56;62.58;101040.25;6094612;23;20028;-81
2023/03/23 03:53:12;;;;;;;9.98;8.43;;;;;;;13.32;62.94;101012.22;6139538;23;20017;-83
2023/03/23 03:55:38;;;;;;;13.73;9.32;;;;;;;13.24;63.55;101020.09;6146972;23;20021;-80
2023/03/23 03:58:04;;;;;;;15.98;8.98;;;;;;;13.00;64.03;100992.06;6119126;23;20099;-82
2023/03/23 04:00:30;;;;;;;15.50;8.50;;;;;;;13.30;63.80;101040.88;6114297;23;20645;-83
2023/03/23 04:02:56;;;;;;;12.13;8.68;;;;;;;13.02;63.58;100995.44;6141703;23;20448;-81
2023/03/23 04:05:23;;;;;;;16.23;8.68;;;;;;;13.32;63.35;101044.22;6173413;23;20032;-80
2023/03/23 04:07:51;;;;;;;14.13;8.82;;;;;;;13.18;63.37;101036.63;6139363;23;20071;-83
2023/03/23 04:10:23;;;;;;;17.58;8.75;;;;;;;13.19;64.31;101055.16;6149850;23;20056;-82
2023/03/23 04:12:49;;;;;;;13.82;9.50;;;;;;;12.87;64.75;101004.84;6140905;23;20366;-82
2023/03/23 04:15:16;;;;;;;9.98;8.27;;;;;;;12.93;65.19;101038.06;6141232;23;20440;-81
2023/03/23 04:17:45;;;;;;;13.90;8.52;;;;;;;13.00;64.94;101056.03;6142142;23;20447;-83
2023/03/23 04:20:17;;;;;;;14.63;9.10;;;;;;;12.37;65.10;100951.72;6142851;23;20475;-80
2023/03/23 04:22:54;;;;;;;19.17;9.38;;;;;;;13.08;64.77;101044.66;6142993;23;20032;-83
2023/03/23 04:25:27;;;;;;;12.52;8.60;;;;;;;13.08;64.77;101043.81;6147130;23;20071;-84
2023/03/23 04:27:57;;;;;;;11.85;8.35;;;;;;;12.99;64.76;101043.69;6145257;23;20016;-84
2023/03/23 04:30:27;;;;;;;12.35;9.25;;;;;;;12.98;65.01;101071.31;6145297;23;20368;-83
2023/03/23 04:32:55;;;;;;;12.45;8.93;;;;;;;12.83;65.38;101048.72;6151854;23;20586;-82
2023/03/23 04:35:24;;;;;;;15.02;9.32;;;;;;;12.85;65.46;101065.44;6147575;23;20437;-83
2023/03/23 04:37:53;;;;;;;10.77;8.48;;;;;;;12.65;65.83;101042.44;6138497;23;20031;-83
2023/03/23 04:40:23;;;;;;;11.18;9.13;;;;;;;12.70;66.67;101054.34;6152969;23;20091;-82
2023/03/23 04:42:57;;;;;;;12.30;8.88;;;;;;;12.79;66.36;101074.84;6131153;23;20103;-84
2023/03/23 04:45:26;;;;;;;15.75;9.50;;;;;;;12.80;65.06;101083.66;6168955;23;20070;-80
2023/03/23 04:48:04;;;;;;;17.92;9.95;;;;;;;12.77;64.79;101071.47;6144300;23;20029;-82
2023/03/23 04:50:32;;;;;;;20.88;10.00;;;;;;;12.65;64.92;101056.59;6145340;23;20333;-82
2023/03/23 04:53:04;;;;;;;21.23;10.60;;;;;;;12.70;65.12;101072.16;6146079;23;20207;-84
2023/03/23 04:55:38;;;;;;;13.15;9.65;;;;;;;12.82;65.07;101100.34;6129298;23;20663;-82
2023/03/23 04:58:07;;;;;;;12.52;9.93;;;;;;;12.81;65.16;101094.16;6141351;23;20279;-81
2023/03/23 05:00:40;;;;;;;17.50;10.07;;;;;;;12.73;64.63;101075.38;6138881;23;20043;-83
2023/03/23 05:03:11;;;;;;;20.90;9.57;;;;;;;12.90;64.45;101100.50;6149413;23;20461;-81
2023/03/23 05:05:37;;;;;;;17.80;9.55;;;;;;;12.91;64.73;101104.81;6141406;23;20023;-82
2023/03/23 05:08:03;;;;;;;13.23;9.18;;;;;;;12.93;64.05;101092.22;6147528;23;20017;-83
2023/03/23 05:10:29;;;;;;;11.20;9.18;;;;;;;13.13;63.41;101108.19;6150151;23;20021;-82
2023/03/23 05:12:55;;;;;;;14.32;9.15;;;;;;;13.00;63.32;101074.69;6153854;23;20298;-80
2023/03/23 05:15:21;;;;;;;12.43;9.13;;;;;;;13.30;62.65;101104.00;6141729;23;20112;-81
2023/03/23 05:17:59;;;;;;;11.75;8.75;;;;;;;13.38;62.36;101121.00;6146813;23;20127;-83
2023/03/23 05:20:33;;;;;;;12.70;9.43;;;;;;;13.30;62.38;101112.88;6151324;23;20059;-81
2023/03/23 05:23:02;;;;;;;13.80;9.88;;;;;;;13.13;62.97;101105.53;6151266;23;20045;-82
2023/03/23 05:25:27;;;;;;;16.25;9.50;;;;;;;13.07;62.90;101090.13;6148927;23;20353;-82
2023/03/23 05:27:53;;;;;;;15.25;9.40;;;;;;;13.26;62.78;101108.78;6157322;23;20280;-81
2023/03/23 05:30:35;;;;;;;13.43;9.63;;;;;;;12.79;63.09;101057.97;6151834;23;20445;-82
2023/03/23 05:33:09;;;;;;;15.57;9.55;;;;;;;13.18;62.80;101098.81;6149976;23;20025;-83
2023/03/23 05:35:38;;;;;;;14.95;9.23;;;;;;;13.31;62.38;101114.56;6149573;23;20301;-83
2023/03/23 05:38:04;;;;;;;13.93;9.88;;;;;;;13.25;62.44;101112.41;6136216;23;20036;-82
2023/03/23 05:40:34;;;;;;;16.48;10.23;;;;;;;13.20;62.64;101104.00;6137251;23;20382;-82
2023/03/23 05:43:00;;;;;;;15.80;9.63;;;;;;;13.29;62.82;101137.84;6146068;23;20463;-83
2023/03/23 05:45:26;;;;;;;16.48;9.82;;;;;;;13.06;63.30;101105.28;6145158;23;20401;-83
2023/03/23 05:47:52;;;;;;;14.25;9.68;;;;;;;13.20;63.27;101117.31;6145903;23;20019;-83
2023/03/23 05:50:21;;;;;;;15.23;9.40;;;;;;;13.19;63.94;101119.16;6139839;23;20017;-83
2023/03/23 05:52:52;;;;;;;19.85;10.82;;;;;;;13.28;64.05;101144.16;6173374;23;20265;-83
2023/03/23 05:55:18;;;;;;;18.48;10.45;;;;;;;13.19;63.95;101135.16;6173021;23;20392;-81
2023/03/23 05:57:43;;;;;;;13.27;9.68;;;;;;;13.12;64.29;101130.53;6174290;23;20567;-83
2023/03/23 06:00:19;;;;;;;18.33;11.27;;;;;;;13.11;63.93;101118.19;6148712;23;20365;-82
2023/03/23 06:02:54;;;;;;;21.38;13.57;;;;;;;13.23;62.77;101125.06;6147532;23;20028;-81
2023/03/23 06:05:25;;;;;;;15.15;11.13;;;;;;;12.78;62.81;101041.16;6151926;23;20450;-84
2023/03/23 06:07:53;;;;;;;20.52;14.00;;;;;;;12.64;62.35;101006.09;6173078;23;20016;-81
2023/03/23 06:10:19;;;;;;;19.13;13.52;;;;;;;13.12;62.72;101095.88;6149161;23;20455;-83
2023/03/23 06:12:49;;;;;;;25.65;14.23;;;;;;;13.49;63.28;101153.81;6172659;23;20270;-84
2023/03/23 06:15:29;;;;;;;22.42;13.10;;;;;;;13.65;62.89;101183.44;6146876;23;20039;-83
2023/03/23 06:17:56;;;;;;;19.23;12.43;;;;;;;13.61;62.78;101160.69;6154119;23;20460;-83
2023/03/23 06:20:25;;;;;;;16.77;11.60;;;;;;;13.70;62.39;101177.69;6177946;23;20365;-83
2023/03/23 06:22:51;;;;;;;18.33;11.20;;;;;;;13.65;62.03;101154.09;6172938;23;20444;-81
2023/03/23 06:25:20;;;;;;;17.60;11.70;;;;;;;13.60;61.97;101146.53;6169490;23;20033;-81
2023/03/23 06:27:46;;;;;;;20.10;11.02;;;;;;;13.96;61.50;101185.94;6147947;23;20024;-84
2023/03/23 06:30:15;;;;;;;18.17;11.25;;;;;;;13.68;61.38;101143.97;6181083;23;20095;-84
2023/03/23 06:32:47;;;;;;;21.63;12.60;;;;;;;14.05;60.86;101187.72;6154128;23;20564;-82
2023/03/23 06:35:13;;;;;;;36.30;13.10;;;;;;;13.75;61.07;101136.22;6152198;23;20025;-83
2023/03/23 06:37:47;;;;;;;30.55;12.50;;;;;;;14.20;60.22;101194.28;6152622;23;20020;-83
2023/03/23 06:40:12;;;;;;;22.33;11.27;;;;;;;14.20;60.36;101196.97;6154969;23;20048;-84
2023/03/23 06:42:48;;;;;;;16.38;11.27;;;;;;;14.16;60.65;101198.22;6170331;23;20352;-84
2023/03/23 06:45:26;;;;;;;16.48;11.52;;;;;;;14.18;60.84;101193.59;6125475;23;20100;-83
2023/03/23 06:47:51;;;;;;;16.88;12.63;;;;;;;14.02;61.02;101170.16;6114094;23;20067;-84
2023/03/23 06:50:17;;;;;;;20.15;11.43;;;;;;;14.20;61.27;101204.97;6159145;23;20055;-84
2023/03/23 06:52:48;;;;;;;22.90;12.07;;;;;;;13.98;60.85;101154.56;6165985;23;20017;-82
2023/03/23 06:55:17;;;;;;;18.42;11.35;;;;;;;14.09;60.31;101157.06;6144917;23;20520;-82
2023/03/23 06:57:44;;;;;;;16.60;10.25;;;;;;;14.28;60.31;101175.69;6143995;23;20074;-81
2023/03/23 07:00:23;;;;;;;22.40;11.63;;;;;;;14.40;59.44;101180.84;6164476;23;20376;-81
2023/03/23 07:02:55;;;;;;;21.45;11.55;;;;;;;14.09;59.08;101128.53;6137993;23;20167;-83
2023/03/23 07:05:27;;;;;;;20.75;11.30;;;;;;;14.43;58.44;101172.53;6134814;23;20035;-80
2023/03/23 07:07:52;;;;;;;;;;;;;;;14.53;57.70;101190.22;6135080;23;20111;-80
2023/03/23 07:10:19;;;;;;;19.67;11.90;;;;;;;14.48;57.68;101173.78;6161298;23;19959;-80
2023/03/23 07:12:44;;;;;;;13.50;10.13;;;;;;;14.75;57.39;101194.34;6142041;23;20020;-82
2023/03/23 07:15:15;;;;;;;22.30;10.48;;;;;;;14.71;57.12;101192.97;6117232;23;20273;-79
2023/03/23 07:17:43;;;;;;;16.20;10.45;;;;;;;14.87;56.33;101196.81;6118596;23;20208;-82
2023/03/23 07:20:14;;;;;;;17.95;11.48;;;;;;;14.61;56.57;101144.09;6118083;23;20048;-82
2023/03/23 07:22:40;;;;;;;17.23;11.82;;;;;;;14.82;56.25;101178.53;6146334;23;20051;-84
2023/03/23 07:25:07;;;;;;;18.75;11.77;;;;;;;15.01;55.92;101185.59;6180428;23;20035;-81
2023/03/23 07:27:39;;;;;;;18.80;11.40;;;;;;;15.20;54.34;101183.81;6148917;23;20052;-82
2023/03/23 07:30:07;;;;;;;23.63;11.02;;;;;;;15.20;54.49;101191.81;6137081;23;20052;-82
2023/03/23 07:32:34;;;;;;;21.88;10.90;;;;;;;15.17;54.62;101182.28;6143050;23;20416;-82
2023/03/23 07:35:00;;;;;;;17.95;10.93;;;;;;;15.27;54.22;101163.47;6141141;23;20391;-83
2023/03/23 07:37:32;;;;;;;25.17;11.68;;;;;;;15.54;53.13;101192.78;6147111;23;20017;-80
2023/03/23 07:40:16;;;;;;;20.40;10.98;;;;;;;15.73;53.08;101209.72;6160167;23;20022;-81
2023/03/23 07:42:49;;;;;;;25.13;11.50;;;;;;;15.67;52.52;101189.72;6149618;23;20245;-82
2023/03/23 07:45:15;;;;;;;24.50;11.82;;;;;;;15.54;52.21;101163.38;6150112;23;20173;-82
2023/03/23 07:47:41;;;;;;;24.25;11.70;;;;;;;15.83;52.32;101188.22;6140108;23;20561;-82
2023/03/23 07:50:09;;;;;;;26.05;11.20;;;;;;;15.58;51.65;101156.72;6137971;23;20206;-82
2023/03/23 07:52:36;;;;;;;24.10;11.43;;;;;;;15.96;51.14;101194.81;6149650;23;20043;-82
2023/03/23 07:55:08;;;;;;;21.55;11.82;;;;;;;15.89;49.60;101175.00;6149338;23;20538;-81
2023/03/23 07:57:33;;;;;;;19.90;10.43;;;;;;;16.10;48.98;101185.38;6155683;23;20440;-80
2023/03/23 08:00:00;;;;;;;21.38;10.38;;;;;;;15.87;48.88;101144.88;6150830;23;20086;-79
2023/03/23 08:02:39;;;;;;;23.55;10.75;;;;;;;16.34;48.44;101208.78;6170339;23;20055;-81
2023/03/23 08:05:27;;;;;;;24.05;11.55;;;;;;;15.63;47.41;101070.56;6138369;23;20110;-81
2023/03/23 08:07:56;;;;;;;21.23;11.10;;;;;;;16.39;47.26;101187.69;6127510;23;20021;-83
2023/03/23 08:10:23;;;;;;;20.60;11.05;;;;;;;16.48;46.91;101187.72;6144948;23;20114;-84
2023/03/23 08:12:52;;;;;;;21.45;10.38;;;;;;;16.43;46.91;101169.44;6158084;23;20344;-83
2023/03/23 08:15:22;;;;;;;20.88;10.75;;;;;;;16.70;46.58;101203.25;6126581;23;20028;-83
2023/03/23 08:17:49;;;;;;;21.27;10.07;;;;;;;16.20;46.72;101127.16;6166324;23;20140;-81
2023/03/23 08:20:16;;;;;;;17.35;10.02;;;;;;;16.74;46.97;101209.13;6165395;23;20036;-83
2023/03/23 08:23:02;;;;;;;16.85;10.40;;;;;;;16.80;45.90;101208.50;6135811;23;20028;-84
2023/03/23 08:25:31;;;;;;;19.63;9.85;;;;;;;16.82;46.21;101207.34;6148461;23;20510;-82
2023/03/23 08:27:58;;;;;;;18.33;10.60;;;;;;;15.93;45.78;101039.84;6141141;23;20429;-84
2023/03/23 08:30:25;;;;;;;23.10;12.82;;;;;;;16.81;46.11;101189.56;6117419;23;20194;-83
2023/03/23 08:33:05;;;;;;;31.92;13.65;;;;;;;16.77;45.80;101177.47;6103922;23;20103;-82
2023/03/23 08:35:34;;;;;;;36.65;14.35;;;;;;;15.72;45.31;100993.88;6121064;23;20024;-83
2023/03/23 08:38:11;;;;;;;39.53;16.10;;;;;;;16.32;45.09;101060.72;6109711;23;20102;-86
2023/03/23 08:40:39;;;;;;;37.08;18.02;;;;;;;17.13;46.10;101204.06;6118449;23;20024;-84
2023/03/23 08:43:04;;;;;;;41.10;19.05;;;;;;;16.54;46.03;101112.88;6111631;23;20032;-84
2023/03/23 08:45:31;;;;;;;42.58;20.33;;;;;;;16.57;46.33;101119.75;6150703;23;20222;-83
2023/03/23 08:48:15;;;;;;;40.30;18.20;;;;;;;16.68;45.67;101135.56;6114010;23;20204;-85
2023/03/23 08:50:50;;;;;;;41.67;18.97;;;;;;;16.30;46.71;101048.50;6115135;23;20024;-83
2023/03/23 08:53:24;;;;;;;39.13;19.92;;;;;;;17.25;45.89;101196.53;6122898;23;20270;-83
2023/03/23 08:55:50;;;;;;;35.83;17.60;;;;;;;16.10;46.01;100997.88;6115842;23;20021;-84
2023/03/23 08:58:29;;;;;;;44.05;18.25;;;;;;;17.39;45.26;101203.09;6146748;23;20032;-84
2023/03/23 09:00:54;;;;;;;35.22;16.70;;;;;;;16.66;46.04;101081.25;6141112;23;20028;-83
2023/03/23 09:03:20;;;;;;;37.72;17.90;;;;;;;16.66;45.98;101067.84;6142960;23;20016;-82
2023/03/23 09:05:48;;;;;;;40.00;18.13;;;;;;;17.12;46.01;101129.13;6138169;23;20357;-84
2023/03/23 09:08:14;;;;;;;38.42;17.33;;;;;;;17.62;45.32;101201.44;6134744;23;20260;-83
2023/03/23 09:10:45;;;;;;;37.05;18.00;;;;;;;17.42;45.29;101171.38;6170531;23;20025;-84
2023/03/23 09:13:20;;;;;;;35.72;17.27;;;;;;;17.11;44.94;101109.47;6152592;23;20118;-83
2023/03/23 09:16:08;;;;;;;33.85;15.63;;;;;;;17.37;45.60;101156.81;6116853;23;20127;-81
2023/03/23 09:18:35;;;;;;;39.47;16.75;;;;;;;17.46;46.53;101166.53;6166440;23;20279;-82
2023/03/23 09:21:05;;;;;;;34.17;16.05;;;;;;;17.42;45.46;101139.19;6144541;23;20208;-84
2023/03/23 09:23:31;;;;;;;31.15;15.65;;;;;;;17.99;45.59;101207.31;6145293;23;20365;-84
2023/03/23 09:26:01;;;;;;;27.15;13.60;;;;;;;18.02;45.29;101205.13;6171427;23;20031;-82
2023/03/23 09:28:27;;;;;;;27.00;13.95;;;;;;;17.68;44.44;101117.50;6145128;23;20456;-84
2023/03/23 09:30:58;;;;;;;28.55;14.60;;;;;;;17.25;44.75;101036.38;6138943;23;20091;-82
2023/03/23 09:33:35;;;;;;;27.80;14.30;;;;;;;17.91;43.88;101143.69;6140678;23;20023;-84
2023/03/23 09:36:12;;;;;;;27.55;12.98;;;;;;;18.12;44.22;101160.09;6151655;23;20020;-84
2023/03/23 09:38:48;;;;;;;28.63;13.68;;;;;;;17.94;43.63;101103.91;6152963;23;20023;-85
2023/03/23 09:41:46;;;;;;;27.95;13.10;;;;;;;18.64;43.19;101207.13;6132003;23;20030;-84
2023/03/23 09:44:55;;;;;;;25.17;11.93;;;;;;;18.67;42.23;101200.56;6132320;23;20028;-84
2023/03/23 09:47:46;;;;;;;27.77;12.55;;;;;;;18.77;43.43;101196.66;6153968;23;20423;-82
2023/03/23 09:50:11;;;;;;;27.50;11.85;;;;;;;18.84;43.14;101195.97;6154172;23;20055;-83
2023/03/23 09:52:40;;;;;;;24.58;11.93;;;;;;;17.84;41.96;101024.53;6151701;23;20024;-85
2023/03/23 09:55:11;;;;;;;22.08;10.57;;;;;;;18.42;41.67;101114.63;6145958;23;20032;-83
2023/03/23 09:58:03;;;;;;;20.03;10.60;;;;;;;18.88;41.21;101163.13;6151585;23;20017;-83
2023/03/23 10:01:13;;;;;;;27.95;12.07;;;;;;;18.78;39.70;101092.59;6136545;23;20461;-84
2023/03/23 10:03:51;;;;;;;23.65;11.30;;;;;;;19.65;40.93;101190.00;6159412;23;20017;-84
2023/03/23 10:06:18;;;;;;;24.08;12.30;;;;;;;18.93;41.03;101053.16;6153665;23;20029;-85
2023/03/23 10:08:52;;;;;;;21.77;10.15;;;;;;;19.28;39.28;101072.38;6148903;23;20099;-82
2023/03/23 10:11:57;;;;;;;23.00;10.43;;;;;;;19.59;38.94;101114.50;6134877;23;20121;-81
2023/03/23 10:14:47;;;;;;;17.95;9.93;;;;;;;20.11;39.32;101181.00;6149344;23;20067;-83
2023/03/23 10:17:20;;;;;;;18.88;9.35;;;;;;;19.68;39.83;101089.19;6173384;23;20024;-85
2023/03/23 10:20:14;;;;;;;22.50;10.80;;;;;;;19.88;38.75;101092.19;6146138;23;20016;-85
2023/03/23 10:23:24;;;;;;;18.70;9.63;;;;;;;19.80;38.74;101060.75;6173526;23;20021;-83
2023/03/23 10:26:00;;;;;;;17.27;9.57;;;;;;;19.46;38.38;101006.59;6132381;23;20020;-83
2023/03/23 10:28:42;;;;;;;21.90;10.27;;;;;;;20.51;37.96;101186.97;6178060;23;20031;-85
2023/03/23 10:32:01;;;;;;;20.05;9.50;;;;;;;20.30;38.49;101127.56;6205086;23;20292;-83
2023/03/23 10:34:56;;;;;;;18.30;8.88;;;;;;;20.69;38.65;101168.53;6147379;23;20028;-83
2023/03/23 10:37:30;;;;;;;21.85;10.73;;;;;;;20.37;38.46;101109.63;6151451;23;20027;-82
2023/03/23 10:40:14;;;;;;;19.63;9.75;;;;;;;19.83;38.58;101033.47;6125008;23;20012;-82
2023/03/23 10:42:40;;;;;;;21.10;10.85;;;;;;;20.79;37.94;101167.41;6151515;23;20059;-84
2023/03/23 10:45:29;;;;;;;21.85;11.32;;;;;;;20.45;37.88;101096.00;6146837;23;20109;-84
2023/03/23 10:48:21;;;;;;;21.50;10.90;;;;;;;20.82;38.31;101127.38;6128175;23;20408;-84
2023/03/23 10:50:57;;;;;;;30.60;12.90;;;;;;;20.43;37.68;101031.47;6149384;23;20488;-83
2023/03/23 10:53:32;;;;;;;28.73;13.63;;;;;;;21.46;37.28;101156.28;6152652;23;20203;-83
2023/03/23 10:55:59;;;;;;;23.92;12.50;;;;;;;21.46;37.52;101159.00;6150098;23;20025;-84
2023/03/23 10:58:34;;;;;;;28.55;12.77;;;;;;;20.74;37.39;101054.66;6137247;23;20016;-83
2023/03/23 11:01:04;;;;;;;30.27;14.70;;;;;;;20.79;38.23;101062.19;6117819;23;20436;-85
2023/03/23 11:03:39;;;;;;;30.75;16.83;;;;;;;20.72;38.00;101027.03;6116598;23;20091;-85
2023/03/23 11:06:30;;;;;;;34.65;17.17;;;;;;;20.89;38.23;101027.59;6130542;23;20040;-86
2023/03/23 11:09:22;;;;;;;42.38;19.02;;;;;;;21.88;38.37;101156.41;6122824;23;20279;-83
2023/03/23 11:11:58;;;;;;;35.30;16.55;;;;;;;21.39;38.06;101041.97;6167051;23;20341;-81
2023/03/23 11:14:44;;;;;;;;;;;;;;;;;;;;;
2023/03/23 11:17:27;;;;;;;34.70;15.18;;;;;;;21.60;37.04;101030.25;6147261;23;20056;-84
2023/03/23 11:19:56;;;;;;;34.80;16.40;;;;;;;21.83;37.83;101057.00;6122415;23;20026;-85
2023/03/23 11:22:32;;;;;;;34.88;16.75;;;;;;;21.68;36.72;101029.28;6117141;23;20020;-81
2023/03/23 11:25:05;;;;;;;40.22;16.65;;;;;;;21.06;36.47;100953.41;6173338;23;20024;-84
2023/03/23 11:27:33;;;;;;;34.00;16.38;;;;;;;21.95;37.08;101141.06;6121608;23;20284;-82
2023/03/23 11:30:36;;;;;;;30.70;14.52;;;;;;;22.00;37.87;101164.78;6122841;23;20020;-85
2023/03/23 11:33:02;;;;;;;32.00;16.33;;;;;;;21.45;38.09;101095.19;6150342;23;20024;-84
2023/03/23 11:35:30;;;;;;;36.38;16.08;;;;;;;21.44;38.42;101106.19;6122706;23;20537;-85
2023/03/23 11:37:58;;;;;;;34.92;18.05;;;;;;;21.94;38.28;101156.44;6151265;23;20031;-82
2023/03/23 11:40:43;;;;;;;34.95;16.88;;;;;;;21.88;38.12;101168.03;6128576;23;20031;-84
2023/03/23 11:43:21;;;;;;;39.38;17.52;;;;;;;21.75;38.41;101143.63;6128630;23;20021;-84